sensor_id;sensor_type;location;lat;lon;timestamp;P1;durP1;ratioP1;P2;durP2;ratioP2
68432;SDS011;55412;51.350;17.056;2023-04-19T00:01:05;12.73;;;5.80;;
68432;SDS011;55412;51.350;17.056;2023-04-19T00:03:32;12.40;;;5.97;;
68432;SDS011;55412;51.350;17.056;2023-04-19T00:05:58;13.45;;;6.00;;
68432;SDS011;55412;51.350;17.056;2023-04-19T00:08:24;10.02;;;4.45;;
68432;SDS011;55412;51.350;17.056;2023-04-19T00:10:50;11.18;;;5.35;;
68432;SDS011;55412;51.350;17.056;2023-04-19T00:13:16;12.30;;;4.82;;
68432;SDS011;55412;51.350;17.056;2023-04-19T00:15:42;11.20;;;4.77;;
68432;SDS011;55412;51.350;17.056;2023-04-19T00:18:08;11.80;;;5.68;;
68432;SDS011;55412;51.350;17.056;2023-04-19T00:20:34;12.45;;;5.18;;
68432;SDS011;55412;51.350;17.056;2023-04-19T00:23:00;13.80;;;5.72;;
68432;SDS011;55412;51.350;17.056;2023-04-19T00:25:27;15.63;;;5.63;;
68432;SDS011;55412;51.350;17.056;2023-04-19T00:27:56;10.47;;;5.27;;
68432;SDS011;55412;51.350;17.056;2023-04-19T00:30:22;10.90;;;5.20;;
68432;SDS011;55412;51.350;17.056;2023-04-19T00:32:47;10.85;;;5.47;;
68432;SDS011;55412;51.350;17.056;2023-04-19T00:35:13;10.02;;;4.72;;
68432;SDS011;55412;51.350;17.056;2023-04-19T00:37:39;12.60;;;5.10;;
68432;SDS011;55412;51.350;17.056;2023-04-19T00:40:06;13.00;;;5.75;;
68432;SDS011;55412;51.350;17.056;2023-04-19T00:42:32;12.57;;;5.57;;
68432;SDS011;55412;51.350;17.056;2023-04-19T00:45:00;10.35;;;4.97;;
68432;SDS011;55412;51.350;17.056;2023-04-19T00:47:26;13.35;;;5.70;;
68432;SDS011;55412;51.350;17.056;2023-04-19T00:49:52;10.30;;;4.50;;
68432;SDS011;55412;51.350;17.056;2023-04-19T00:52:18;11.68;;;4.90;;
68432;SDS011;55412;51.350;17.056;2023-04-19T00:54:44;11.48;;;4.93;;
68432;SDS011;55412;51.350;17.056;2023-04-19T00:57:10;10.35;;;4.95;;
68432;SDS011;55412;51.350;17.056;2023-04-19T00:59:36;10.77;;;5.10;;
68432;SDS011;55412;51.350;17.056;2023-04-19T01:02:04;14.13;;;5.23;;
68432;SDS011;55412;51.350;17.056;2023-04-19T01:04:31;13.07;;;4.55;;
68432;SDS011;55412;51.350;17.056;2023-04-19T01:06:57;11.13;;;4.22;;
68432;SDS011;55412;51.350;17.056;2023-04-19T01:09:23;11.23;;;4.55;;
68432;SDS011;55412;51.350;17.056;2023-04-19T01:11:49;8.63;;;3.30;;
68432;SDS011;55412;51.350;17.056;2023-04-19T01:14:15;10.23;;;4.13;;
68432;SDS011;55412;51.350;17.056;2023-04-19T01:16:41;9.20;;;3.90;;
68432;SDS011;55412;51.350;17.056;2023-04-19T01:19:08;10.75;;;4.38;;
68432;SDS011;55412;51.350;17.056;2023-04-19T01:21:35;9.95;;;4.00;;
68432;SDS011;55412;51.350;17.056;2023-04-19T01:24:03;9.57;;;4.45;;
68432;SDS011;55412;51.350;17.056;2023-04-19T01:26:30;9.90;;;4.70;;
68432;SDS011;55412;51.350;17.056;2023-04-19T01:28:56;10.38;;;4.05;;
68432;SDS011;55412;51.350;17.056;2023-04-19T01:31:22;10.27;;;3.85;;
68432;SDS011;55412;51.350;17.056;2023-04-19T01:33:48;7.85;;;3.05;;
68432;SDS011;55412;51.350;17.056;2023-04-19T01:36:15;9.23;;;3.27;;
68432;SDS011;55412;51.350;17.056;2023-04-19T01:38:41;8.75;;;3.25;;
68432;SDS011;55412;51.350;17.056;2023-04-19T01:41:07;8.75;;;3.05;;
68432;SDS011;55412;51.350;17.056;2023-04-19T01:43:33;7.43;;;2.85;;
68432;SDS011;55412;51.350;17.056;2023-04-19T01:45:59;12.13;;;3.13;;
68432;SDS011;55412;51.350;17.056;2023-04-19T01:48:25;11.03;;;3.10;;
68432;SDS011;55412;51.350;17.056;2023-04-19T01:50:51;7.18;;;2.40;;
68432;SDS011;55412;51.350;17.056;2023-04-19T01:53:17;9.07;;;3.17;;
68432;SDS011;55412;51.350;17.056;2023-04-19T01:55:43;5.57;;;2.60;;
68432;SDS011;55412;51.350;17.056;2023-04-19T01:58:09;6.82;;;2.90;;
68432;SDS011;55412;51.350;17.056;2023-04-19T02:00:35;8.60;;;3.63;;
68432;SDS011;55412;51.350;17.056;2023-04-19T02:03:01;9.35;;;3.45;;
68432;SDS011;55412;51.350;17.056;2023-04-19T02:05:27;7.47;;;3.05;;
68432;SDS011;55412;51.350;17.056;2023-04-19T02:07:53;9.80;;;2.85;;
68432;SDS011;55412;51.350;17.056;2023-04-19T02:10:19;7.67;;;2.53;;
68432;SDS011;55412;51.350;17.056;2023-04-19T02:12:45;9.10;;;2.90;;
68432;SDS011;55412;51.350;17.056;2023-04-19T02:15:11;8.43;;;2.50;;
68432;SDS011;55412;51.350;17.056;2023-04-19T02:17:37;7.78;;;2.40;;
68432;SDS011;55412;51.350;17.056;2023-04-19T02:20:04;7.78;;;2.35;;
68432;SDS011;55412;51.350;17.056;2023-04-19T02:22:32;7.82;;;2.10;;
68432;SDS011;55412;51.350;17.056;2023-04-19T02:24:58;8.20;;;2.17;;
68432;SDS011;55412;51.350;17.056;2023-04-19T02:27:24;7.70;;;2.42;;
68432;SDS011;55412;51.350;17.056;2023-04-19T02:29:50;7.95;;;2.20;;
68432;SDS011;55412;51.350;17.056;2023-04-19T02:32:16;5.75;;;2.00;;
68432;SDS011;55412;51.350;17.056;2023-04-19T02:34:42;5.53;;;1.90;;
68432;SDS011;55412;51.350;17.056;2023-04-19T02:37:08;8.07;;;2.13;;
68432;SDS011;55412;51.350;17.056;2023-04-19T02:39:34;9.02;;;2.15;;
68432;SDS011;55412;51.350;17.056;2023-04-19T02:42:00;8.80;;;2.13;;
68432;SDS011;55412;51.350;17.056;2023-04-19T02:44:26;6.50;;;2.17;;
68432;SDS011;55412;51.350;17.056;2023-04-19T02:46:52;6.88;;;2.17;;
68432;SDS011;55412;51.350;17.056;2023-04-19T02:49:19;7.53;;;2.15;;
68432;SDS011;55412;51.350;17.056;2023-04-19T02:51:46;5.55;;;2.00;;
68432;SDS011;55412;51.350;17.056;2023-04-19T02:54:12;6.97;;;2.35;;
68432;SDS011;55412;51.350;17.056;2023-04-19T02:56:38;7.47;;;2.47;;
68432;SDS011;55412;51.350;17.056;2023-04-19T02:59:04;7.85;;;2.55;;
68432;SDS011;55412;51.350;17.056;2023-04-19T03:01:31;11.48;;;2.35;;
68432;SDS011;55412;51.350;17.056;2023-04-19T03:03:57;7.47;;;2.27;;
68432;SDS011;55412;51.350;17.056;2023-04-19T03:06:23;8.87;;;2.77;;
68432;SDS011;55412;51.350;17.056;2023-04-19T03:08:50;8.00;;;2.58;;
68432;SDS011;55412;51.350;17.056;2023-04-19T03:11:16;5.82;;;2.20;;
68432;SDS011;55412;51.350;17.056;2023-04-19T03:13:43;6.53;;;2.25;;
68432;SDS011;55412;51.350;17.056;2023-04-19T03:16:09;5.53;;;1.70;;
68432;SDS011;55412;51.350;17.056;2023-04-19T03:18:35;8.27;;;3.00;;
68432;SDS011;55412;51.350;17.056;2023-04-19T03:21:01;7.22;;;1.95;;
68432;SDS011;55412;51.350;17.056;2023-04-19T03:23:28;11.05;;;2.10;;
68432;SDS011;55412;51.350;17.056;2023-04-19T03:25:55;5.50;;;1.45;;
68432;SDS011;55412;51.350;17.056;2023-04-19T03:28:21;8.73;;;1.80;;
68432;SDS011;55412;51.350;17.056;2023-04-19T03:30:47;6.27;;;1.83;;
68432;SDS011;55412;51.350;17.056;2023-04-19T03:33:13;5.18;;;1.88;;
68432;SDS011;55412;51.350;17.056;2023-04-19T03:35:39;5.70;;;1.30;;
68432;SDS011;55412;51.350;17.056;2023-04-19T03:38:05;10.30;;;2.08;;
68432;SDS011;55412;51.350;17.056;2023-04-19T03:40:35;5.85;;;1.50;;
68432;SDS011;55412;51.350;17.056;2023-04-19T03:43:02;5.10;;;1.87;;
68432;SDS011;55412;51.350;17.056;2023-04-19T03:45:29;6.22;;;1.55;;
68432;SDS011;55412;51.350;17.056;2023-04-19T03:47:55;9.13;;;2.40;;
68432;SDS011;55412;51.350;17.056;2023-04-19T03:50:21;4.68;;;1.30;;
68432;SDS011;55412;51.350;17.056;2023-04-19T03:52:47;6.93;;;1.80;;
68432;SDS011;55412;51.350;17.056;2023-04-19T03:55:13;7.93;;;1.80;;
68432;SDS011;55412;51.350;17.056;2023-04-19T03:57:39;5.13;;;1.52;;
68432;SDS011;55412;51.350;17.056;2023-04-19T04:00:06;5.32;;;1.77;;
68432;SDS011;55412;51.350;17.056;2023-04-19T04:02:33;6.32;;;1.75;;
68432;SDS011;55412;51.350;17.056;2023-04-19T04:05:08;5.05;;;2.00;;
68432;SDS011;55412;51.350;17.056;2023-04-19T04:07:34;5.27;;;1.70;;
68432;SDS011;55412;51.350;17.056;2023-04-19T04:10:00;6.20;;;1.58;;
68432;SDS011;55412;51.350;17.056;2023-04-19T04:12:26;7.65;;;2.03;;
68432;SDS011;55412;51.350;17.056;2023-04-19T04:14:52;6.60;;;1.70;;
68432;SDS011;55412;51.350;17.056;2023-04-19T04:17:18;6.78;;;2.08;;
68432;SDS011;55412;51.350;17.056;2023-04-19T04:19:44;6.83;;;1.70;;
68432;SDS011;55412;51.350;17.056;2023-04-19T04:22:10;6.43;;;1.80;;
68432;SDS011;55412;51.350;17.056;2023-04-19T04:24:37;5.60;;;2.00;;
68432;SDS011;55412;51.350;17.056;2023-04-19T04:27:05;6.72;;;1.27;;
68432;SDS011;55412;51.350;17.056;2023-04-19T04:29:34;7.53;;;1.77;;
68432;SDS011;55412;51.350;17.056;2023-04-19T04:32:05;8.50;;;1.60;;
68432;SDS011;55412;51.350;17.056;2023-04-19T04:34:33;6.97;;;1.92;;
68432;SDS011;55412;51.350;17.056;2023-04-19T04:37:00;5.50;;;1.90;;
68432;SDS011;55412;51.350;17.056;2023-04-19T04:39:28;7.70;;;2.42;;
68432;SDS011;55412;51.350;17.056;2023-04-19T04:41:54;10.47;;;2.60;;
68432;SDS011;55412;51.350;17.056;2023-04-19T04:44:22;7.43;;;1.90;;
68432;SDS011;55412;51.350;17.056;2023-04-19T04:46:48;4.82;;;1.63;;
68432;SDS011;55412;51.350;17.056;2023-04-19T04:49:14;9.07;;;1.95;;
68432;SDS011;55412;51.350;17.056;2023-04-19T04:51:40;5.13;;;1.42;;
68432;SDS011;55412;51.350;17.056;2023-04-19T04:54:06;7.33;;;2.00;;
68432;SDS011;55412;51.350;17.056;2023-04-19T04:56:32;6.10;;;2.10;;
68432;SDS011;55412;51.350;17.056;2023-04-19T04:58:58;7.53;;;2.63;;
68432;SDS011;55412;51.350;17.056;2023-04-19T05:01:24;16.30;;;9.77;;
68432;SDS011;55412;51.350;17.056;2023-04-19T05:03:50;12.35;;;6.88;;
68432;SDS011;55412;51.350;17.056;2023-04-19T05:06:16;14.60;;;6.47;;
68432;SDS011;55412;51.350;17.056;2023-04-19T05:08:43;21.10;;;9.48;;
68432;SDS011;55412;51.350;17.056;2023-04-19T05:11:09;35.47;;;16.05;;
68432;SDS011;55412;51.350;17.056;2023-04-19T05:13:35;62.47;;;30.97;;
68432;SDS011;55412;51.350;17.056;2023-04-19T05:16:01;22.27;;;12.45;;
68432;SDS011;55412;51.350;17.056;2023-04-19T05:18:27;7.18;;;3.38;;
68432;SDS011;55412;51.350;17.056;2023-04-19T05:20:53;8.43;;;2.30;;
68432;SDS011;55412;51.350;17.056;2023-04-19T05:23:21;5.47;;;1.70;;
68432;SDS011;55412;51.350;17.056;2023-04-19T05:25:47;6.33;;;1.40;;
68432;SDS011;55412;51.350;17.056;2023-04-19T05:28:13;4.95;;;1.48;;
68432;SDS011;55412;51.350;17.056;2023-04-19T05:30:39;6.63;;;1.40;;
68432;SDS011;55412;51.350;17.056;2023-04-19T05:33:05;5.50;;;0.85;;
68432;SDS011;55412;51.350;17.056;2023-04-19T05:35:31;7.30;;;1.87;;
68432;SDS011;55412;51.350;17.056;2023-04-19T05:37:57;4.43;;;1.13;;
68432;SDS011;55412;51.350;17.056;2023-04-19T05:40:23;6.53;;;1.65;;
68432;SDS011;55412;51.350;17.056;2023-04-19T05:42:49;5.63;;;2.80;;
68432;SDS011;55412;51.350;17.056;2023-04-19T05:45:16;6.88;;;2.50;;
68432;SDS011;55412;51.350;17.056;2023-04-19T05:47:43;35.10;;;14.95;;
68432;SDS011;55412;51.350;17.056;2023-04-19T05:50:09;15.57;;;6.70;;
68432;SDS011;55412;51.350;17.056;2023-04-19T05:52:35;10.32;;;2.35;;
68432;SDS011;55412;51.350;17.056;2023-04-19T05:55:01;9.57;;;2.42;;
68432;SDS011;55412;51.350;17.056;2023-04-19T05:57:28;10.00;;;3.05;;
68432;SDS011;55412;51.350;17.056;2023-04-19T05:59:54;12.10;;;4.70;;
68432;SDS011;55412;51.350;17.056;2023-04-19T06:02:20;10.57;;;2.60;;
68432;SDS011;55412;51.350;17.056;2023-04-19T06:04:46;9.07;;;2.80;;
68432;SDS011;55412;51.350;17.056;2023-04-19T06:07:13;7.68;;;1.75;;
68432;SDS011;55412;51.350;17.056;2023-04-19T06:09:39;21.05;;;2.88;;
68432;SDS011;55412;51.350;17.056;2023-04-19T06:12:05;9.60;;;2.95;;
68432;SDS011;55412;51.350;17.056;2023-04-19T06:14:31;5.63;;;1.70;;
68432;SDS011;55412;51.350;17.056;2023-04-19T06:16:57;6.95;;;2.42;;
68432;SDS011;55412;51.350;17.056;2023-04-19T06:19:23;9.75;;;3.75;;
68432;SDS011;55412;51.350;17.056;2023-04-19T06:21:49;8.80;;;3.03;;
68432;SDS011;55412;51.350;17.056;2023-04-19T06:24:15;15.50;;;5.65;;
68432;SDS011;55412;51.350;17.056;2023-04-19T06:26:41;7.00;;;2.50;;
68432;SDS011;55412;51.350;17.056;2023-04-19T06:29:07;22.92;;;9.90;;
68432;SDS011;55412;51.350;17.056;2023-04-19T06:31:33;15.85;;;6.32;;
68432;SDS011;55412;51.350;17.056;2023-04-19T06:33:59;20.98;;;8.65;;
68432;SDS011;55412;51.350;17.056;2023-04-19T06:36:25;13.77;;;5.73;;
68432;SDS011;55412;51.350;17.056;2023-04-19T06:38:51;8.23;;;2.63;;
68432;SDS011;55412;51.350;17.056;2023-04-19T06:41:17;13.80;;;5.95;;
68432;SDS011;55412;51.350;17.056;2023-04-19T06:43:43;15.95;;;6.10;;
68432;SDS011;55412;51.350;17.056;2023-04-19T06:46:09;9.15;;;3.90;;
68432;SDS011;55412;51.350;17.056;2023-04-19T06:48:37;11.80;;;4.60;;
68432;SDS011;55412;51.350;17.056;2023-04-19T06:51:03;18.88;;;8.55;;
68432;SDS011;55412;51.350;17.056;2023-04-19T06:53:30;12.57;;;6.07;;
68432;SDS011;55412;51.350;17.056;2023-04-19T06:55:59;7.03;;;3.20;;
68432;SDS011;55412;51.350;17.056;2023-04-19T06:58:27;9.27;;;4.00;;
68432;SDS011;55412;51.350;17.056;2023-04-19T07:00:53;12.43;;;4.37;;
68432;SDS011;55412;51.350;17.056;2023-04-19T07:03:20;9.60;;;3.13;;
68432;SDS011;55412;51.350;17.056;2023-04-19T07:05:46;8.55;;;2.72;;
68432;SDS011;55412;51.350;17.056;2023-04-19T07:08:13;10.85;;;3.53;;
68432;SDS011;55412;51.350;17.056;2023-04-19T07:10:40;31.00;;;8.05;;
68432;SDS011;55412;51.350;17.056;2023-04-19T07:13:08;11.80;;;4.30;;
68432;SDS011;55412;51.350;17.056;2023-04-19T07:15:36;21.27;;;5.88;;
68432;SDS011;55412;51.350;17.056;2023-04-19T07:18:02;13.63;;;5.10;;
68432;SDS011;55412;51.350;17.056;2023-04-19T07:20:28;8.50;;;3.35;;
68432;SDS011;55412;51.350;17.056;2023-04-19T07:22:56;9.27;;;3.60;;
68432;SDS011;55412;51.350;17.056;2023-04-19T07:25:23;9.07;;;3.17;;
68432;SDS011;55412;51.350;17.056;2023-04-19T07:27:51;8.88;;;2.80;;
68432;SDS011;55412;51.350;17.056;2023-04-19T07:30:18;10.43;;;3.35;;
68432;SDS011;55412;51.350;17.056;2023-04-19T07:32:45;7.85;;;2.40;;
68432;SDS011;55412;51.350;17.056;2023-04-19T07:35:11;8.50;;;2.53;;
68432;SDS011;55412;51.350;17.056;2023-04-19T07:37:37;7.90;;;2.67;;
68432;SDS011;55412;51.350;17.056;2023-04-19T07:40:03;9.18;;;2.60;;
68432;SDS011;55412;51.350;17.056;2023-04-19T07:42:30;12.00;;;2.70;;
68432;SDS011;55412;51.350;17.056;2023-04-19T07:44:56;7.45;;;2.58;;
68432;SDS011;55412;51.350;17.056;2023-04-19T07:47:23;11.05;;;2.40;;
68432;SDS011;55412;51.350;17.056;2023-04-19T07:49:53;7.47;;;2.57;;
68432;SDS011;55412;51.350;17.056;2023-04-19T07:52:20;7.88;;;2.78;;
68432;SDS011;55412;51.350;17.056;2023-04-19T07:54:46;9.93;;;3.30;;
68432;SDS011;55412;51.350;17.056;2023-04-19T07:57:12;10.48;;;2.80;;
68432;SDS011;55412;51.350;17.056;2023-04-19T07:59:38;7.63;;;2.47;;
68432;SDS011;55412;51.350;17.056;2023-04-19T08:02:04;10.93;;;3.67;;
68432;SDS011;55412;51.350;17.056;2023-04-19T08:04:31;115.95;;;35.40;;
68432;SDS011;55412;51.350;17.056;2023-04-19T08:06:57;108.45;;;45.90;;
68432;SDS011;55412;51.350;17.056;2023-04-19T08:09:23;19.42;;;10.30;;
68432;SDS011;55412;51.350;17.056;2023-04-19T08:11:49;41.07;;;15.03;;
68432;SDS011;55412;51.350;17.056;2023-04-19T08:14:15;39.60;;;11.60;;
68432;SDS011;55412;51.350;17.056;2023-04-19T08:16:41;32.30;;;9.48;;
68432;SDS011;55412;51.350;17.056;2023-04-19T08:19:07;53.35;;;13.02;;
68432;SDS011;55412;51.350;17.056;2023-04-19T08:21:33;40.72;;;10.15;;
68432;SDS011;55412;51.350;17.056;2023-04-19T08:23:59;26.87;;;6.67;;
68432;SDS011;55412;51.350;17.056;2023-04-19T08:26:25;22.08;;;5.55;;
68432;SDS011;55412;51.350;17.056;2023-04-19T08:28:51;25.70;;;7.30;;
68432;SDS011;55412;51.350;17.056;2023-04-19T08:31:17;12.65;;;4.10;;
68432;SDS011;55412;51.350;17.056;2023-04-19T08:33:45;30.50;;;9.05;;
68432;SDS011;55412;51.350;17.056;2023-04-19T08:36:11;82.47;;;27.33;;
68432;SDS011;55412;51.350;17.056;2023-04-19T08:38:38;31.88;;;10.13;;
68432;SDS011;55412;51.350;17.056;2023-04-19T08:41:05;75.43;;;24.52;;
68432;SDS011;55412;51.350;17.056;2023-04-19T08:43:32;40.88;;;13.93;;
68432;SDS011;55412;51.350;17.056;2023-04-19T08:46:01;21.02;;;7.25;;
68432;SDS011;55412;51.350;17.056;2023-04-19T08:48:28;13.63;;;3.23;;
68432;SDS011;55412;51.350;17.056;2023-04-19T08:50:58;17.42;;;7.80;;
68432;SDS011;55412;51.350;17.056;2023-04-19T08:53:27;19.27;;;7.85;;
68432;SDS011;55412;51.350;17.056;2023-04-19T08:55:54;12.93;;;4.80;;
68432;SDS011;55412;51.350;17.056;2023-04-19T08:58:22;12.35;;;4.28;;
68432;SDS011;55412;51.350;17.056;2023-04-19T09:00:54;12.07;;;5.07;;
68432;SDS011;55412;51.350;17.056;2023-04-19T09:03:22;15.80;;;4.22;;
68432;SDS011;55412;51.350;17.056;2023-04-19T09:05:48;15.05;;;5.25;;
68432;SDS011;55412;51.350;17.056;2023-04-19T09:08:21;44.75;;;18.30;;
68432;SDS011;55412;51.350;17.056;2023-04-19T09:10:55;16.20;;;6.25;;
68432;SDS011;55412;51.350;17.056;2023-04-19T09:13:26;14.17;;;4.80;;
68432;SDS011;55412;51.350;17.056;2023-04-19T09:15:53;22.10;;;8.95;;
68432;SDS011;55412;51.350;17.056;2023-04-19T09:18:21;13.18;;;5.28;;
68432;SDS011;55412;51.350;17.056;2023-04-19T09:20:51;15.93;;;7.38;;
68432;SDS011;55412;51.350;17.056;2023-04-19T09:23:25;15.38;;;6.38;;
68432;SDS011;55412;51.350;17.056;2023-04-19T09:25:56;17.43;;;6.20;;
68432;SDS011;55412;51.350;17.056;2023-04-19T09:28:25;23.17;;;8.30;;
68432;SDS011;55412;51.350;17.056;2023-04-19T09:30:52;18.10;;;7.88;;
68432;SDS011;55412;51.350;17.056;2023-04-19T09:33:33;22.35;;;8.93;;
68432;SDS011;55412;51.350;17.056;2023-04-19T09:36:04;46.42;;;18.23;;
68432;SDS011;55412;51.350;17.056;2023-04-19T09:38:47;34.40;;;11.33;;
68432;SDS011;55412;51.350;17.056;2023-04-19T09:41:14;41.88;;;14.23;;
68432;SDS011;55412;51.350;17.056;2023-04-19T09:43:44;25.83;;;11.48;;
68432;SDS011;55412;51.350;17.056;2023-04-19T09:46:29;38.47;;;16.23;;
68432;SDS011;55412;51.350;17.056;2023-04-19T09:49:33;19.70;;;7.40;;
68432;SDS011;55412;51.350;17.056;2023-04-19T09:51:52;22.03;;;9.10;;
68432;SDS011;55412;51.350;17.056;2023-04-19T09:54:23;15.52;;;6.53;;
68432;SDS011;55412;51.350;17.056;2023-04-19T09:56:54;19.38;;;8.52;;
68432;SDS011;55412;51.350;17.056;2023-04-19T09:59:20;25.80;;;10.95;;
68432;SDS011;55412;51.350;17.056;2023-04-19T10:01:48;13.38;;;4.63;;
68432;SDS011;55412;51.350;17.056;2023-04-19T10:04:20;17.87;;;7.30;;
68432;SDS011;55412;51.350;17.056;2023-04-19T10:06:52;16.00;;;6.18;;
68432;SDS011;55412;51.350;17.056;2023-04-19T10:09:22;38.83;;;15.27;;
68432;SDS011;55412;51.350;17.056;2023-04-19T10:11:51;35.80;;;13.40;;
68432;SDS011;55412;51.350;17.056;2023-04-19T10:14:21;23.35;;;9.05;;
68432;SDS011;55412;51.350;17.056;2023-04-19T10:16:49;28.70;;;12.20;;
68432;SDS011;55412;51.350;17.056;2023-04-19T10:19:17;14.05;;;5.75;;
68432;SDS011;55412;51.350;17.056;2023-04-19T10:21:46;12.23;;;5.35;;
68432;SDS011;55412;51.350;17.056;2023-04-19T10:24:14;14.30;;;7.13;;
68432;SDS011;55412;51.350;17.056;2023-04-19T10:32:27;20.60;;;8.35;;
68432;SDS011;55412;51.350;17.056;2023-04-19T10:35:22;12.38;;;5.30;;
68432;SDS011;55412;51.350;17.056;2023-04-19T10:38:04;16.77;;;5.95;;
68432;SDS011;55412;51.350;17.056;2023-04-19T10:43:21;14.80;;;8.20;;
68432;SDS011;55412;51.350;17.056;2023-04-19T10:46:12;19.15;;;9.05;;
68432;SDS011;55412;51.350;17.056;2023-04-19T10:48:56;14.80;;;6.93;;
68432;SDS011;55412;51.350;17.056;2023-04-19T10:51:28;15.43;;;7.93;;
68432;SDS011;55412;51.350;17.056;2023-04-19T10:54:03;13.75;;;6.57;;
68432;SDS011;55412;51.350;17.056;2023-04-19T11:04:04;30.17;;;12.00;;
68432;SDS011;55412;51.350;17.056;2023-04-19T11:06:32;16.63;;;7.38;;
68432;SDS011;55412;51.350;17.056;2023-04-19T11:08:59;42.07;;;16.23;;
68432;SDS011;55412;51.350;17.056;2023-04-19T11:11:27;18.23;;;7.40;;
68432;SDS011;55412;51.350;17.056;2023-04-19T11:13:56;25.27;;;10.52;;
68432;SDS011;55412;51.350;17.056;2023-04-19T11:16:26;21.52;;;9.75;;
68432;SDS011;55412;51.350;17.056;2023-04-19T11:18:52;9.55;;;4.20;;
68432;SDS011;55412;51.350;17.056;2023-04-19T11:21:20;12.50;;;5.73;;
68432;SDS011;55412;51.350;17.056;2023-04-19T11:23:48;12.57;;;5.45;;
68432;SDS011;55412;51.350;17.056;2023-04-19T11:26:30;15.70;;;5.88;;
68432;SDS011;55412;51.350;17.056;2023-04-19T11:28:56;23.30;;;11.02;;
68432;SDS011;55412;51.350;17.056;2023-04-19T11:31:22;13.30;;;6.10;;
68432;SDS011;55412;51.350;17.056;2023-04-19T11:33:48;18.23;;;7.87;;
68432;SDS011;55412;51.350;17.056;2023-04-19T11:36:15;14.23;;;5.50;;
68432;SDS011;55412;51.350;17.056;2023-04-19T11:38:45;40.97;;;17.48;;
68432;SDS011;55412;51.350;17.056;2023-04-19T11:41:12;17.17;;;7.47;;
68432;SDS011;55412;51.350;17.056;2023-04-19T11:43:38;18.70;;;7.28;;
68432;SDS011;55412;51.350;17.056;2023-04-19T11:46:08;15.10;;;5.87;;
68432;SDS011;55412;51.350;17.056;2023-04-19T11:48:36;13.63;;;6.18;;
68432;SDS011;55412;51.350;17.056;2023-04-19T11:51:19;18.65;;;6.80;;
68432;SDS011;55412;51.350;17.056;2023-04-19T11:53:45;14.15;;;5.32;;
68432;SDS011;55412;51.350;17.056;2023-04-19T11:56:11;15.60;;;6.05;;
68432;SDS011;55412;51.350;17.056;2023-04-19T12:01:21;10.05;;;4.43;;
68432;SDS011;55412;51.350;17.056;2023-04-19T12:03:50;12.45;;;4.88;;
68432;SDS011;55412;51.350;17.056;2023-04-19T12:08:51;7.00;;;3.63;;
68432;SDS011;55412;51.350;17.056;2023-04-19T12:11:20;8.13;;;3.80;;
68432;SDS011;55412;51.350;17.056;2023-04-19T12:14:06;11.55;;;4.32;;
68432;SDS011;55412;51.350;17.056;2023-04-19T12:16:36;13.10;;;4.60;;
68432;SDS011;55412;51.350;17.056;2023-04-19T12:19:12;8.95;;;3.88;;
68432;SDS011;55412;51.350;17.056;2023-04-19T12:21:44;7.72;;;3.28;;
68432;SDS011;55412;51.350;17.056;2023-04-19T12:24:13;8.37;;;3.33;;
68432;SDS011;55412;51.350;17.056;2023-04-19T12:26:53;10.27;;;3.35;;
68432;SDS011;55412;51.350;17.056;2023-04-19T12:29:21;9.35;;;4.78;;
68432;SDS011;55412;51.350;17.056;2023-04-19T12:31:47;9.30;;;3.10;;
68432;SDS011;55412;51.350;17.056;2023-04-19T12:34:13;6.45;;;2.90;;
68432;SDS011;55412;51.350;17.056;2023-04-19T12:36:39;9.63;;;3.10;;
68432;SDS011;55412;51.350;17.056;2023-04-19T12:39:05;8.68;;;3.22;;
68432;SDS011;55412;51.350;17.056;2023-04-19T12:41:32;7.28;;;2.60;;
68432;SDS011;55412;51.350;17.056;2023-04-19T12:43:58;8.38;;;3.28;;
68432;SDS011;55412;51.350;17.056;2023-04-19T12:46:24;5.63;;;3.10;;
68432;SDS011;55412;51.350;17.056;2023-04-19T12:48:50;6.78;;;2.90;;
68432;SDS011;55412;51.350;17.056;2023-04-19T12:51:16;10.45;;;7.35;;
68432;SDS011;55412;51.350;17.056;2023-04-19T12:53:46;5.88;;;2.47;;
68432;SDS011;55412;51.350;17.056;2023-04-19T12:56:13;6.75;;;3.20;;
68432;SDS011;55412;51.350;17.056;2023-04-19T12:58:41;7.50;;;3.23;;
68432;SDS011;55412;51.350;17.056;2023-04-19T13:01:07;5.85;;;2.83;;
68432;SDS011;55412;51.350;17.056;2023-04-19T13:03:33;5.28;;;2.05;;
68432;SDS011;55412;51.350;17.056;2023-04-19T13:06:03;16.10;;;5.22;;
68432;SDS011;55412;51.350;17.056;2023-04-19T13:08:30;66.30;;;20.02;;
68432;SDS011;55412;51.350;17.056;2023-04-19T13:10:56;88.27;;;25.50;;
68432;SDS011;55412;51.350;17.056;2023-04-19T13:13:25;40.70;;;12.07;;
68432;SDS011;55412;51.350;17.056;2023-04-19T13:15:51;31.60;;;10.50;;
68432;SDS011;55412;51.350;17.056;2023-04-19T13:18:17;28.15;;;11.38;;
68432;SDS011;55412;51.350;17.056;2023-04-19T13:20:44;23.87;;;10.03;;
68432;SDS011;55412;51.350;17.056;2023-04-19T13:23:10;33.50;;;12.68;;
68432;SDS011;55412;51.350;17.056;2023-04-19T13:25:36;29.42;;;12.15;;
68432;SDS011;55412;51.350;17.056;2023-04-19T13:28:02;36.35;;;14.88;;
68432;SDS011;55412;51.350;17.056;2023-04-19T13:30:28;24.35;;;9.38;;
68432;SDS011;55412;51.350;17.056;2023-04-19T13:32:54;16.67;;;7.60;;
68432;SDS011;55412;51.350;17.056;2023-04-19T13:35:20;32.83;;;13.70;;
68432;SDS011;55412;51.350;17.056;2023-04-19T13:37:46;31.30;;;13.70;;
68432;SDS011;55412;51.350;17.056;2023-04-19T13:40:12;37.75;;;13.57;;
68432;SDS011;55412;51.350;17.056;2023-04-19T13:42:38;35.67;;;12.27;;
68432;SDS011;55412;51.350;17.056;2023-04-19T13:45:05;169.13;;;49.87;;
68432;SDS011;55412;51.350;17.056;2023-04-19T13:47:31;110.88;;;34.15;;
68432;SDS011;55412;51.350;17.056;2023-04-19T13:49:57;206.23;;;67.20;;
68432;SDS011;55412;51.350;17.056;2023-04-19T13:52:23;157.73;;;49.08;;
68432;SDS011;55412;51.350;17.056;2023-04-19T13:54:49;87.50;;;27.53;;
68432;SDS011;55412;51.350;17.056;2023-04-19T13:57:15;85.63;;;25.95;;
68432;SDS011;55412;51.350;17.056;2023-04-19T13:59:41;51.08;;;15.85;;
68432;SDS011;55412;51.350;17.056;2023-04-19T14:02:07;71.20;;;23.40;;
68432;SDS011;55412;51.350;17.056;2023-04-19T14:04:33;190.13;;;58.47;;
68432;SDS011;55412;51.350;17.056;2023-04-19T14:06:59;43.37;;;12.40;;
68432;SDS011;55412;51.350;17.056;2023-04-19T14:09:25;178.68;;;57.88;;
68432;SDS011;55412;51.350;17.056;2023-04-19T14:11:52;61.53;;;23.15;;
68432;SDS011;55412;51.350;17.056;2023-04-19T14:14:18;75.95;;;30.40;;
68432;SDS011;55412;51.350;17.056;2023-04-19T14:16:44;39.35;;;13.73;;
68432;SDS011;55412;51.350;17.056;2023-04-19T14:19:10;113.43;;;33.23;;
68432;SDS011;55412;51.350;17.056;2023-04-19T14:21:36;94.72;;;28.10;;
68432;SDS011;55412;51.350;17.056;2023-04-19T14:24:03;125.25;;;36.88;;
68432;SDS011;55412;51.350;17.056;2023-04-19T14:26:29;166.32;;;46.92;;
68432;SDS011;55412;51.350;17.056;2023-04-19T14:28:55;47.65;;;13.63;;
68432;SDS011;55412;51.350;17.056;2023-04-19T14:31:21;89.37;;;25.97;;
68432;SDS011;55412;51.350;17.056;2023-04-19T14:33:47;188.25;;;56.65;;
68432;SDS011;55412;51.350;17.056;2023-04-19T14:36:14;46.45;;;14.20;;
68432;SDS011;55412;51.350;17.056;2023-04-19T14:38:40;44.45;;;16.27;;
68432;SDS011;55412;51.350;17.056;2023-04-19T14:41:06;17.63;;;5.80;;
68432;SDS011;55412;51.350;17.056;2023-04-19T14:43:32;26.42;;;9.68;;
68432;SDS011;55412;51.350;17.056;2023-04-19T14:45:58;43.17;;;13.85;;